Time;durP1;ratioP1;P1;durP2;ratioP2;P2;SDS_P1;SDS_P2;PMS_P1;PMS_P2;Temp;Humidity;BMP_temperature;BMP_pressure;BME280_temperature;BME280_humidity;BME280_pressure;Samples;Min_cycle;Max_cycle;Signal;HPM_P1;HPM_P2
2021/03/28 00:00:31;;;;;;;56.10;31.75;;;10.90;99.90;;;;;;5073530;28;20040;-78
2021/03/28 00:03:01;;;;;;;53.30;32.05;;;10.90;99.90;;;;;;5074902;28;20383;-79
2021/03/28 00:05:33;;;;;;;50.63;31.30;;;10.90;99.90;;;;;;5073985;28;20085;-79
2021/03/28 00:08:24;;;;;;;54.00;33.30;;;10.90;99.90;;;;;;5054752;28;20046;-79
2021/03/28 00:11:10;;;;;;;53.75;30.33;;;10.90;99.90;;;;;;5055974;28;20028;-79
2021/03/28 00:13:48;;;;;;;57.22;32.97;;;10.90;99.90;;;;;;5054772;28;20027;-79
2021/03/28 00:16:15;;;;;;;48.17;29.88;;;11.00;99.90;;;;;;5054998;28;20716;-79
2021/03/28 00:18:50;;;;;;;50.88;32.17;;;10.90;99.90;;;;;;5054764;28;20403;-79
2021/03/28 00:21:32;;;;;;;51.63;32.50;;;10.90;99.90;;;;;;5068077;28;20399;-78
2021/03/28 00:24:22;;;;;;;53.28;31.58;;;10.90;99.90;;;;;;5074661;28;20028;-79
2021/03/28 00:27:11;;;;;;;49.88;30.80;;;10.90;99.90;;;;;;5073203;28;20031;-78
2021/03/28 00:30:01;;;;;;;53.20;33.42;;;10.90;99.90;;;;;;5074442;28;20099;-79
2021/03/28 00:32:38;;;;;;;52.92;30.98;;;10.90;99.90;;;;;;5074193;28;20029;-79
2021/03/28 00:35:11;;;;;;;53.20;32.83;;;10.90;99.90;;;;;;5073840;28;20029;-79
2021/03/28 00:37:40;;;;;;;54.20;32.25;;;10.90;99.90;;;;;;5074348;28;20027;-79
2021/03/28 00:40:09;;;;;;;53.15;31.40;;;10.90;99.90;;;;;;5074042;28;20482;-79
2021/03/28 00:42:39;;;;;;;53.63;31.40;;;10.90;99.90;;;;;;5074276;28;20033;-79
2021/03/28 00:45:13;;;;;;;52.85;32.67;;;10.90;99.90;;;;;;5074053;28;20033;-79
2021/03/28 00:47:44;;;;;;;55.33;33.30;;;10.90;99.90;;;;;;5074117;28;20466;-78
2021/03/28 00:50:22;;;;;;;60.40;33.25;;;10.90;99.90;;;;;;5074128;28;20072;-79
2021/03/28 00:52:58;;;;;;;54.60;33.25;;;10.90;99.90;;;;;;5073626;28;20017;-79
2021/03/28 00:55:27;;;;;;;57.90;32.72;;;10.90;99.90;;;;;;5072669;28;20051;-78
2021/03/28 00:58:02;;;;;;;53.45;32.95;;;10.90;99.90;;;;;;5072800;28;20404;-79
2021/03/28 01:01:03;;;;;;;54.50;31.88;;;10.90;99.90;;;;;;5073982;28;20083;-79
2021/03/28 01:04:21;;;;;;;59.78;33.47;;;10.90;99.90;;;;;;5061947;28;20048;-79
2021/03/28 01:06:49;;;;;;;59.53;34.20;;;10.90;99.90;;;;;;5055670;28;20028;-79
2021/03/28 01:09:35;;;;;;;56.05;33.22;;;10.90;99.90;;;;;;5072287;28;20036;-79
2021/03/28 01:12:24;;;;;;;57.47;33.95;;;11.00;99.90;;;;;;5073771;28;20028;-79
2021/03/28 01:15:19;;;;;;;54.15;33.50;;;11.00;99.90;;;;;;5073840;28;20028;-79
2021/03/28 01:17:56;;;;;;;54.25;32.97;;;11.00;99.90;;;;;;5072697;28;20482;-79
2021/03/28 01:20:41;;;;;;;55.70;33.88;;;11.00;99.90;;;;;;5072330;28;20070;-78
2021/03/28 01:23:18;;;;;;;58.20;33.75;;;11.00;99.90;;;;;;5072146;28;20071;-79
2021/03/28 01:25:49;;;;;;;59.53;33.65;;;11.00;99.90;;;;;;5073016;28;20499;-79
2021/03/28 01:28:26;;;;;;;56.50;34.55;;;11.00;99.90;;;;;;5073069;28;20047;-79
2021/03/28 01:31:03;;;;;;;57.95;34.83;;;11.00;99.90;;;;;;5073382;28;20020;-79
2021/03/28 01:33:49;;;;;;;56.40;35.50;;;11.00;99.90;;;;;;5073320;28;20059;-79
2021/03/28 01:36:34;;;;;;;60.22;33.90;;;11.00;99.90;;;;;;5071703;28;20029;-79
2021/03/28 01:39:12;;;;;;;59.03;34.00;;;10.90;99.90;;;;;;5071515;28;20506;-79
2021/03/28 01:41:59;;;;;;;60.47;35.47;;;10.90;99.90;;;;;;5051898;28;20063;-79
2021/03/28 01:44:47;;;;;;;61.10;35.28;;;11.00;99.90;;;;;;5062540;28;20028;-79
2021/03/28 01:47:38;;;;;;;57.38;34.13;;;11.00;99.90;;;;;;5070063;28;20111;-79
2021/03/28 01:50:07;;;;;;;58.22;35.05;;;10.90;99.90;;;;;;5071908;28;20070;-79
2021/03/28 01:52:57;;;;;;;59.22;34.83;;;11.00;99.90;;;;;;5071897;28;20034;-79
2021/03/28 01:55:29;;;;;;;59.53;35.30;;;10.90;99.90;;;;;;5079373;28;20085;-78
2021/03/28 01:57:54;;;;;;;63.55;35.40;;;11.00;99.90;;;;;;5053168;28;20029;-79
2021/03/28 02:01:00;;;;;;;55.05;33.85;;;10.90;99.90;;;;;;5051625;28;20132;-79
2021/03/28 02:03:35;;;;;;;61.67;33.15;;;11.00;99.90;;;;;;5052765;28;20106;-78
2021/03/28 02:06:09;;;;;;;64.00;34.53;;;11.00;99.90;;;;;;5051811;28;20099;-78
2021/03/28 02:09:03;;;;;;;56.85;33.88;;;11.00;99.90;;;;;;5051795;28;20029;-79
2021/03/28 02:11:35;;;;;;;57.47;33.88;;;11.00;99.90;;;;;;5053113;28;20021;-79
2021/03/28 02:14:14;;;;;;;55.38;34.85;;;11.00;99.90;;;;;;5053112;28;20035;-79
2021/03/28 02:17:00;;;;;;;54.70;32.88;;;11.00;99.90;;;;;;5052841;28;20114;-78
2021/03/28 02:19:34;;;;;;;57.22;34.13;;;11.00;99.90;;;;;;5051760;28;20465;-79
2021/03/28 02:22:21;;;;;;;66.00;37.25;;;11.00;99.90;;;;;;5052697;28;20049;-78
2021/03/28 02:25:06;;;;;;;58.35;35.63;;;11.00;99.90;;;;;;5051346;28;20021;-78
2021/03/28 02:27:57;;;;;;;56.90;35.08;;;11.00;99.90;;;;;;5052799;28;20025;-79
2021/03/28 02:30:41;;;;;;;61.75;37.25;;;11.00;99.90;;;;;;5056714;28;20051;-79
2021/03/28 02:33:10;;;;;;;62.90;36.15;;;11.00;99.90;;;;;;5055205;28;20040;-78
2021/03/28 02:35:47;;;;;;;54.67;33.63;;;11.10;99.90;;;;;;5055473;28;20060;-79
2021/03/28 02:38:31;;;;;;;59.80;35.78;;;11.10;99.90;;;;;;5055242;28;20044;-79
2021/03/28 02:41:32;;;;;;;60.20;36.15;;;11.10;99.90;;;;;;5056611;28;20450;-78
2021/03/28 02:44:36;;;;;;;61.28;35.90;;;11.10;99.90;;;;;;5032830;28;20517;-79
2021/03/28 02:47:10;;;;;;;62.60;36.72;;;11.20;99.90;;;;;;5056499;28;20071;-78
2021/03/28 02:50:05;;;;;;;60.47;37.67;;;11.20;99.90;;;;;;5056486;28;20025;-78
2021/03/28 02:53:14;;;;;;;59.97;34.53;;;11.20;99.90;;;;;;5056395;28;20031;-78
2021/03/28 02:56:09;;;;;;;57.65;36.47;;;11.20;99.90;;;;;;5055278;28;20179;-78
2021/03/28 02:59:10;;;;;;;63.97;36.00;;;11.30;99.90;;;;;;5056240;28;20104;-78
2021/03/28 03:01:58;;;;;;;58.15;35.78;;;11.30;99.90;;;;;;5051170;28;20048;-78
2021/03/28 03:04:51;;;;;;;62.22;36.60;;;11.30;99.90;;;;;;5054911;28;20033;-79
2021/03/28 03:07:25;;;;;;;63.90;37.40;;;11.30;99.90;;;;;;5054881;28;20049;-79
2021/03/28 03:10:20;;;;;;;57.20;35.17;;;11.30;99.90;;;;;;5055646;28;20075;-78
2021/03/28 03:12:51;;;;;;;60.75;36.95;;;11.30;99.90;;;;;;5055522;28;20032;-79
2021/03/28 03:15:23;;;;;;;61.97;36.72;;;11.30;99.90;;;;;;5055032;28;20025;-79
2021/03/28 03:18:04;;;;;;;61.50;38.58;;;11.30;99.90;;;;;;5053922;28;20029;-79
2021/03/28 03:21:05;;;;;;;62.05;36.60;;;11.30;99.90;;;;;;5054502;28;20028;-78
2021/03/28 03:23:55;;;;;;;57.78;36.95;;;11.30;99.90;;;;;;5055706;28;20033;-79
2021/03/28 03:26:51;;;;;;;62.58;38.30;;;11.40;99.90;;;;;;5067527;28;20040;-79
2021/03/28 03:29:45;;;;;;;61.83;37.28;;;11.30;99.90;;;;;;5075696;28;20111;-78
2021/03/28 03:32:35;;;;;;;62.33;37.13;;;11.30;99.90;;;;;;5074234;28;20485;-79
2021/03/28 03:35:16;;;;;;;65.15;36.65;;;11.30;99.90;;;;;;5075568;28;20020;-79
2021/03/28 03:37:59;;;;;;;64.30;37.95;;;11.30;99.90;;;;;;5075029;28;20024;-79
2021/03/28 03:40:37;;;;;;;59.92;35.33;;;11.40;99.90;;;;;;5060998;28;20472;-79
2021/03/28 03:43:05;;;;;;;61.97;36.47;;;11.40;99.90;;;;;;5056509;28;20565;-79
2021/03/28 03:45:57;;;;;;;60.92;36.63;;;11.30;99.90;;;;;;5075208;28;20476;-79
2021/03/28 03:48:35;;;;;;;65.47;37.05;;;11.40;99.90;;;;;;5075143;28;20016;-79
2021/03/28 03:51:27;;;;;;;62.42;37.65;;;11.40;99.90;;;;;;5075189;28;20021;-79
2021/03/28 03:53:52;;;;;;;65.30;35.42;;;11.40;99.90;;;;;;5075274;28;20075;-79
2021/03/28 03:56:46;;;;;;;61.63;35.15;;;11.40;99.90;;;;;;5075115;28;20372;-79
2021/03/28 03:59:23;;;;;;;59.33;37.50;;;11.40;99.90;;;;;;5075044;28;20055;-79
2021/03/28 04:02:07;;;;;;;62.50;39.42;;;11.40;99.90;;;;;;5074953;28;20497;-79
2021/03/28 04:04:54;;;;;;;61.80;37.67;;;11.40;99.90;;;;;;5074914;28;20038;-79
2021/03/28 04:07:32;;;;;;;73.90;40.03;;;11.40;99.90;;;;;;5073808;28;20481;-79
2021/03/28 04:10:06;;;;;;;67.93;39.40;;;11.40;99.90;;;;;;5073598;28;20520;-79
2021/03/28 04:13:16;;;;;;;63.80;37.60;;;11.40;99.90;;;;;;5074923;28;20027;-79
2021/03/28 04:15:41;;;;;;;66.85;37.13;;;11.50;99.90;;;;;;5073519;28;20064;-79
2021/03/28 04:18:38;;;;;;;64.95;37.67;;;11.50;99.90;;;;;;5074665;28;20027;-79
2021/03/28 04:21:18;;;;;;;67.65;39.80;;;11.50;99.90;;;;;;5074712;28;20028;-79
2021/03/28 04:23:47;;;;;;;67.43;38.50;;;11.40;99.90;;;;;;5074617;28;20055;-79
2021/03/28 04:26:15;;;;;;;70.50;40.97;;;11.50;99.90;;;;;;5073603;28;20021;-79
2021/03/28 04:28:53;;;;;;;71.68;39.20;;;11.40;99.90;;;;;;5074819;28;20020;-79
2021/03/28 04:31:36;;;;;;;72.32;40.08;;;11.40;99.90;;;;;;5074412;28;20036;-79
2021/03/28 04:34:33;;;;;;;67.75;39.72;;;11.40;99.90;;;;;;5053132;28;20370;-79
2021/03/28 04:37:22;;;;;;;69.47;40.10;;;11.40;99.90;;;;;;5054391;28;20727;-79
2021/03/28 04:40:07;;;;;;;65.00;38.88;;;11.40;99.90;;;;;;5062278;28;20025;-79
2021/03/28 04:42:56;;;;;;;63.90;37.83;;;11.40;99.90;;;;;;5074288;28;20584;-79
2021/03/28 04:45:34;;;;;;;56.92;36.22;;;11.30;99.90;;;;;;5074356;28;20029;-79
2021/03/28 04:48:22;;;;;;;72.55;38.53;;;11.30;99.90;;;;;;5074113;28;20021;-79
2021/03/28 04:50:53;;;;;;;65.30;39.33;;;11.30;99.90;;;;;;5074136;28;20020;-79
2021/03/28 04:53:49;;;;;;;66.40;38.85;;;11.30;99.90;;;;;;5072590;28;20024;-79
2021/03/28 04:56:33;;;;;;;68.93;39.67;;;11.30;99.90;;;;;;5074058;28;20027;-79
2021/03/28 04:59:08;;;;;;;67.82;40.13;;;11.30;99.90;;;;;;5073903;28;20032;-79
2021/03/28 05:01:37;;;;;;;61.47;38.13;;;11.30;99.90;;;;;;5074180;28;20454;-79
2021/03/28 05:04:11;;;;;;;61.42;38.58;;;11.30;99.90;;;;;;5072636;28;20085;-78
2021/03/28 05:06:58;;;;;;;68.95;39.58;;;11.30;99.90;;;;;;5073773;28;20074;-79
2021/03/28 05:09:33;;;;;;;65.03;40.38;;;11.40;99.90;;;;;;5073779;28;20474;-79
2021/03/28 05:12:23;;;;;;;69.45;40.75;;;11.30;99.90;;;;;;5073605;28;20425;-79
2021/03/28 05:15:10;;;;;;;66.93;38.38;;;11.30;99.90;;;;;;5073685;28;20601;-79
2021/03/28 05:18:06;;;;;;;65.97;39.28;;;11.30;99.90;;;;;;5072513;28;20115;-79
2021/03/28 05:21:14;;;;;;;71.00;38.63;;;11.40;99.90;;;;;;5073749;28;20034;-79
2021/03/28 05:24:07;;;;;;;72.93;41.03;;;11.40;99.90;;;;;;5053994;28;20097;-78
2021/03/28 05:26:56;;;;;;;69.32;40.00;;;11.40;99.90;;;;;;5072272;28;20470;-79
2021/03/28 05:29:40;;;;;;;69.13;39.30;;;11.40;99.90;;;;;;5073689;28;20029;-79
2021/03/28 05:32:48;;;;;;;63.90;37.63;;;11.40;99.90;;;;;;5073326;28;20565;-79
2021/03/28 05:35:26;;;;;;;66.25;37.72;;;11.40;99.90;;;;;;5049082;28;20037;-79
2021/03/28 05:37:51;;;;;;;61.00;37.22;;;11.40;99.90;;;;;;5073245;28;20028;-79
2021/03/28 05:40:20;;;;;;;67.85;39.47;;;11.30;99.90;;;;;;5064633;28;20028;-78
2021/03/28 05:43:04;;;;;;;64.40;38.38;;;11.30;99.90;;;;;;5073345;28;20036;-79
2021/03/28 05:45:41;;;;;;;63.17;38.88;;;11.30;99.90;;;;;;5073204;28;20025;-78
2021/03/28 05:48:18;;;;;;;61.83;37.22;;;11.30;99.90;;;;;;5072033;28;20466;-79
2021/03/28 05:51:02;;;;;;;62.88;38.15;;;11.30;99.90;;;;;;5073171;28;20475;-79
2021/03/28 05:53:34;;;;;;;70.25;39.25;;;11.40;99.90;;;;;;5073258;28;20032;-79
2021/03/28 05:56:24;;;;;;;70.15;39.30;;;11.40;99.90;;;;;;5093112;28;20012;-79
2021/03/28 05:59:04;;;;;;;64.95;39.20;;;11.40;99.90;;;;;;5092210;28;20097;-78
2021/03/28 06:02:11;;;;;;;63.20;38.33;;;11.40;99.90;;;;;;5093083;28;20074;-79
2021/03/28 06:05:14;;;;;;;60.50;36.67;;;11.50;99.90;;;;;;5090224;28;20043;-79
2021/03/28 06:08:16;;;;;;;71.53;39.97;;;11.50;99.90;;;;;;5096171;28;20084;-79
2021/03/28 06:11:11;;;;;;;67.40;39.17;;;11.50;99.90;;;;;;5097513;28;20038;-79
2021/03/28 06:13:55;;;;;;;66.35;38.88;;;11.50;99.90;;;;;;5096257;28;20262;-79
2021/03/28 06:16:37;;;;;;;72.20;39.17;;;11.50;99.90;;;;;;5097382;28;20474;-79
2021/03/28 06:19:03;;;;;;;;;;;11.50;99.90;;;;;;5097739;28;20028;-78
2021/03/28 06:21:44;;;;;;;68.40;39.08;;;11.50;99.90;;;;;;5097030;28;20387;-78
2021/03/28 06:24:35;;;;;;;73.53;40.58;;;11.50;99.90;;;;;;5095753;28;20500;-79
2021/03/28 06:27:44;;;;;;;72.28;38.88;;;11.50;99.90;;;;;;5097361;28;20508;-79
2021/03/28 06:30:37;;;;;;;67.00;39.35;;;11.60;99.90;;;;;;5095747;28;20100;-78
2021/03/28 06:33:49;;;;;;;69.38;38.75;;;11.60;99.90;;;;;;5097017;28;20020;-79
2021/03/28 06:36:44;;;;;;;66.82;37.90;;;11.60;99.90;;;;;;5076003;28;20459;-79
2021/03/28 06:39:28;;;;;;;74.28;39.20;;;11.60;99.90;;;;;;5065351;28;20037;-78
2021/03/28 06:42:31;;;;;;;61.85;37.55;;;11.70;99.90;;;;;;5072117;28;20446;-79
2021/03/28 06:45:15;;;;;;;63.53;37.20;;;11.70;99.90;;;;;;5076445;28;20077;-79
2021/03/28 06:47:41;;;;;;;67.45;38.75;;;11.70;99.90;;;;;;5075165;28;20398;-78
2021/03/28 06:50:22;;;;;;;68.78;40.33;;;11.70;99.90;;;;;;5076393;28;20112;-79
2021/03/28 06:52:56;;;;;;;66.28;39.17;;;11.80;99.90;;;;;;5076085;28;20078;-79
2021/03/28 06:55:41;;;;;;;65.20;39.05;;;11.90;99.90;;;;;;5076373;28;20107;-78
2021/03/28 06:58:13;;;;;;;66.95;38.88;;;11.90;99.90;;;;;;5074932;28;20039;-79
2021/03/28 07:01:22;;;;;;;70.20;37.55;;;12.00;99.90;;;;;;5076205;28;20028;-78
2021/03/28 07:03:57;;;;;;;63.83;38.42;;;12.00;99.90;;;;;;5075956;28;20023;-79
2021/03/28 07:06:23;;;;;;;66.43;39.92;;;12.00;99.90;;;;;;5076159;28;20406;-78
2021/03/28 07:09:03;;;;;;;66.82;40.60;;;12.10;99.90;;;;;;5076098;28;20024;-79
2021/03/28 07:11:39;;;;;;;68.60;39.50;;;12.10;99.90;;;;;;5056011;28;20024;-78
2021/03/28 07:14:23;;;;;;;69.38;41.42;;;12.20;99.90;;;;;;5054824;28;20063;-78
2021/03/28 07:17:13;;;;;;;77.68;40.20;;;12.20;99.90;;;;;;5054979;28;20040;-79
2021/03/28 07:20:18;;;;;;;71.43;39.97;;;12.30;99.90;;;;;;5055913;28;20055;-79
2021/03/28 07:22:46;;;;;;;75.60;41.05;;;12.40;99.90;;;;;;5055387;28;20048;-79
2021/03/28 07:25:46;;;;;;;70.55;40.03;;;12.40;99.90;;;;;;5061324;28;20063;-79
2021/03/28 07:28:37;;;;;;;67.85;41.28;;;12.40;99.90;;;;;;5074882;28;20016;-79
2021/03/28 07:31:11;;;;;;;68.28;40.38;;;12.50;99.90;;;;;;5075253;28;20111;-79
2021/03/28 07:33:49;;;;;;;69.78;41.20;;;12.50;99.90;;;;;;5076119;28;20015;-78
2021/03/28 07:36:38;;;;;;;68.65;43.00;;;12.60;99.90;;;;;;5073201;28;20035;-78
2021/03/28 07:39:06;;;;;;;70.90;43.22;;;12.70;99.90;;;;;;5064439;28;20174;-78
2021/03/28 07:41:55;;;;;;;70.75;42.30;;;12.70;99.90;;;;;;5073868;28;20037;-78
2021/03/28 07:44:59;;;;;;;70.90;41.58;;;12.70;99.90;;;;;;5072032;28;20087;-79
2021/03/28 07:47:49;;;;;;;70.03;42.47;;;12.80;99.90;;;;;;5075054;28;20048;-78
2021/03/28 07:50:33;;;;;;;68.13;41.08;;;12.90;99.90;;;;;;5073849;28;20024;-79
2021/03/28 07:53:27;;;;;;;76.85;43.72;;;12.90;99.90;;;;;;5077522;28;20040;-78
2021/03/28 07:56:11;;;;;;;72.40;43.15;;;12.90;99.90;;;;;;5075133;28;20035;-79
2021/03/28 07:59:03;;;;;;;72.63;43.30;;;13.00;99.90;;;;;;5074996;28;20520;-79
2021/03/28 08:02:03;;;;;;;68.17;42.90;;;13.00;99.90;;;;;;5074564;28;20029;-79
2021/03/28 08:05:01;;;;;;;78.47;42.95;;;13.00;99.90;;;;;;5074149;28;20023;-79
2021/03/28 08:07:37;;;;;;;73.85;42.63;;;13.00;99.90;;;;;;5067772;28;20035;-79
2021/03/28 08:10:23;;;;;;;72.65;42.30;;;13.10;99.90;;;;;;5074404;28;20107;-78
2021/03/28 08:13:30;;;;;;;67.75;43.20;;;13.10;99.90;;;;;;5074187;28;20021;-79
2021/03/28 08:16:17;;;;;;;73.85;43.30;;;13.20;99.90;;;;;;5074465;28;20024;-78
2021/03/28 08:19:28;;;;;;;68.43;41.90;;;13.20;99.90;;;;;;5073341;28;20078;-79
2021/03/28 08:22:12;;;;;;;71.18;42.88;;;13.20;99.90;;;;;;5063769;28;20056;-79
2021/03/28 08:24:52;;;;;;;67.60;41.53;;;13.30;99.90;;;;;;5055942;28;20570;-79
2021/03/28 08:27:55;;;;;;;72.10;41.40;;;13.30;99.90;;;;;;5074003;28;20040;-79
2021/03/28 08:30:57;;;;;;;75.63;41.05;;;13.40;99.90;;;;;;5074423;28;20025;-79
2021/03/28 08:33:36;;;;;;;73.53;41.05;;;13.40;99.90;;;;;;5070572;28;20021;-79
2021/03/28 08:36:34;;;;;;;67.63;39.47;;;13.40;99.90;;;;;;5073012;28;20029;-79
2021/03/28 08:39:23;;;;;;;68.47;37.85;;;13.50;99.90;;;;;;5072740;28;20028;-78
2021/03/28 08:42:10;;;;;;;62.85;37.45;;;13.60;99.90;;;;;;5072849;28;20025;-78
2021/03/28 08:44:52;;;;;;;65.15;38.63;;;13.70;99.90;;;;;;5073806;28;20497;-79
2021/03/28 08:47:32;;;;;;;69.90;39.05;;;13.80;99.90;;;;;;5072744;28;20146;-78
2021/03/28 08:50:24;;;;;;;65.43;40.35;;;13.90;99.90;;;;;;5074041;28;20024;-79
2021/03/28 08:53:09;;;;;;;68.45;39.20;;;13.90;99.90;;;;;;5073653;28;20011;-79
2021/03/28 08:56:00;;;;;;;71.10;40.63;;;14.00;99.90;;;;;;5071807;28;20025;-79
2021/03/28 08:58:49;;;;;;;73.95;40.67;;;14.10;99.90;;;;;;5071668;28;20432;-78
2021/03/28 09:01:23;;;;;;;70.95;39.53;;;14.10;99.90;;;;;;5067734;28;20099;-79
2021/03/28 09:04:05;;;;;;;79.18;42.83;;;14.20;99.90;;;;;;5073691;28;20032;-79
2021/03/28 09:07:02;;;;;;;68.57;41.60;;;14.20;99.90;;;;;;5073299;28;20021;-79
2021/03/28 09:09:46;;;;;;;80.07;44.00;;;14.30;99.90;;;;;;5057541;28;20095;-74
2021/03/28 09:12:35;;;;;;;72.07;40.72;;;14.50;99.90;;;;;;5060134;28;20036;-79
2021/03/28 09:15:06;;;;;;;67.10;40.90;;;14.50;99.90;;;;;;5054108;28;20605;-78
2021/03/28 09:17:44;;;;;;;68.95;40.85;;;14.50;99.90;;;;;;5066656;28;20111;-78
2021/03/28 09:20:13;;;;;;;64.15;39.30;;;14.60;99.90;;;;;;5069837;28;20024;-78
2021/03/28 09:23:04;;;;;;;69.50;40.53;;;14.70;99.90;;;;;;5066290;28;20051;-78
2021/03/28 09:25:48;;;;;;;66.78;39.53;;;14.70;99.90;;;;;;5055833;28;20028;-77
2021/03/28 09:28:35;;;;;;;65.55;40.08;;;14.80;99.90;;;;;;5068620;28;20051;-77
2021/03/28 09:31:25;;;;;;;66.65;39.25;;;14.90;99.90;;;;;;5052932;28;20017;-78
2021/03/28 09:33:55;;;;;;;66.93;39.25;;;14.80;99.90;;;;;;5066716;28;20013;-77
2021/03/28 09:36:34;;;;;;;66.80;37.88;;;14.80;99.90;;;;;;5067734;28;20688;-77
2021/03/28 09:39:25;;;;;;;73.75;42.08;;;14.70;99.90;;;;;;5067174;28;20042;-78
2021/03/28 09:42:08;;;;;;;83.60;45.42;;;14.80;99.90;;;;;;5048786;28;20440;-77
2021/03/28 09:44:58;;;;;;;71.18;40.47;;;14.80;99.90;;;;;;5068711;28;20036;-78
2021/03/28 09:48:01;;;;;;;69.85;39.72;;;14.80;99.90;;;;;;5069243;28;20368;-77
2021/03/28 09:50:36;;;;;;;69.75;40.17;;;15.00;99.90;;;;;;5069707;28;20028;-77
2021/03/28 09:53:17;;;;;;;62.35;38.55;;;15.10;99.90;;;;;;5068199;28;20015;-78
2021/03/28 09:55:47;;;;;;;71.28;40.35;;;15.20;99.90;;;;;;5086580;28;20055;-78
2021/03/28 09:58:39;;;;;;;63.88;38.95;;;15.20;99.90;;;;;;5088276;28;20039;-77
2021/03/28 10:01:17;;;;;;;65.05;38.17;;;15.50;99.90;;;;;;5092090;28;20063;-76
2021/03/28 10:04:06;;;;;;;67.30;39.40;;;15.50;99.90;;;;;;5072597;28;20024;-77
2021/03/28 10:06:32;;;;;;;66.90;40.67;;;15.50;99.90;;;;;;5072683;28;20114;-76
2021/03/28 10:09:09;;;;;;;66.57;40.00;;;15.50;99.90;;;;;;5071125;28;20111;-77
2021/03/28 10:11:53;;;;;;;66.72;38.45;;;15.60;99.90;;;;;;5065566;28;20017;-77
2021/03/28 10:14:40;;;;;;;64.82;40.17;;;15.70;99.90;;;;;;5072873;28;20526;-77
2021/03/28 10:17:46;;;;;;;63.65;38.78;;;15.80;99.90;;;;;;5073035;28;20028;-77
2021/03/28 10:20:11;;;;;;;67.70;40.35;;;15.80;99.90;;;;;;5063208;28;20402;-77
2021/03/28 10:23:02;;;;;;;69.05;43.00;;;15.90;99.90;;;;;;5071033;28;20044;-77
2021/03/28 10:25:37;;;;;;;71.78;40.65;;;15.90;99.80;;;;;;5072734;28;20028;-79
2021/03/28 10:28:32;;;;;;;62.58;38.85;;;15.80;99.50;;;;;;5071338;28;20406;-78
2021/03/28 10:31:00;;;;;;;64.18;37.65;;;16.00;99.90;;;;;;5072841;28;20021;-78
2021/03/28 10:33:39;;;;;;;65.90;38.45;;;16.10;99.80;;;;;;5072249;28;20024;-78
2021/03/28 10:36:20;;;;;;;68.13;39.42;;;16.10;98.80;;;;;;5056001;28;20020;-78
2021/03/28 10:39:23;;;;;;;70.13;39.72;;;16.10;99.10;;;;;;5073349;28;20056;-78
2021/03/28 10:42:10;;;;;;;72.90;39.60;;;16.10;99.00;;;;;;5069779;28;20094;-78
2021/03/28 10:45:22;;;;;;;67.28;39.53;;;16.10;98.80;;;;;;5071345;28;20032;-78
2021/03/28 10:48:25;;;;;;;61.17;37.93;;;16.20;99.20;;;;;;5060462;28;20509;-78
2021/03/28 10:51:06;;;;;;;58.35;36.17;;;16.40;99.00;;;;;;5072327;28;20300;-78
2021/03/28 10:54:09;;;;;;;62.97;38.17;;;16.50;98.20;;;;;;5069847;28;20016;-78
2021/03/28 10:57:08;;;;;;;63.42;36.67;;;16.40;97.60;;;;;;5077437;28;20059;-78
2021/03/28 10:59:57;;;;;;;60.15;36.42;;;16.40;97.80;;;;;;5076520;28;20088;-78
2021/03/28 11:02:41;;;;;;;57.88;35.13;;;16.50;98.20;;;;;;5073054;28;20101;-78
2021/03/28 11:05:30;;;;;;;56.70;31.35;;;16.60;96.60;;;;;;5068442;28;20450;-78
2021/03/28 11:07:58;;;;;;;45.10;28.40;;;16.80;96.20;;;;;;5077939;28;20063;-78
2021/03/28 11:10:36;;;;;;;41.72;26.52;;;16.90;95.30;;;;;;5076942;28;20071;-78
2021/03/28 11:13:40;;;;;;;45.83;26.10;;;16.80;94.20;;;;;;5082473;28;20025;-78
2021/03/28 11:16:24;;;;;;;53.05;30.33;;;16.70;93.20;;;;;;5075033;28;20491;-77
2021/03/28 11:19:11;;;;;;;51.58;31.45;;;16.60;94.60;;;;;;5069488;28;20024;-78
2021/03/28 11:22:20;;;;;;;48.60;31.40;;;16.50;95.40;;;;;;5072987;28;20103;-78
2021/03/28 11:25:27;;;;;;;46.38;26.05;;;16.60;95.20;;;;;;5075985;28;20020;-78
2021/03/28 11:27:53;;;;;;;40.45;24.10;;;16.80;94.20;;;;;;5072569;28;20394;-77
2021/03/28 11:30:39;;;;;;;32.67;22.48;;;16.90;93.30;;;;;;5073468;28;20021;-76
2021/03/28 11:33:08;;;;;;;36.03;21.48;;;17.10;92.70;;;;;;5072871;28;20107;-79
2021/03/28 11:35:44;;;;;;;34.40;21.85;;;17.20;92.20;;;;;;5071684;28;20060;-77
2021/03/28 11:38:16;;;;;;;34.30;20.55;;;17.30;91.40;;;;;;5069285;28;20028;-78
2021/03/28 11:40:44;;;;;;;28.98;20.45;;;17.40;91.70;;;;;;5072031;28;20043;-78
2021/03/28 11:43:12;;;;;;;37.70;22.52;;;17.50;90.90;;;;;;5075294;28;20054;-77
2021/03/28 11:45:46;;;;;;;40.40;23.10;;;17.60;90.90;;;;;;5077077;28;20020;-76
2021/03/28 11:48:23;;;;;;;40.72;25.38;;;17.60;91.40;;;;;;5077712;28;20016;-76
2021/03/28 11:50:50;;;;;;;39.10;25.15;;;17.50;91.30;;;;;;5072362;28;20043;-77
2021/03/28 11:53:25;;;;;;;41.50;26.05;;;17.50;91.20;;;;;;5071481;28;20055;-77
2021/03/28 11:55:58;;;;;;;41.97;26.20;;;17.60;91.60;;;;;;5072019;28;20035;-76
2021/03/28 11:58:39;;;;;;;43.30;25.08;;;17.80;91.60;;;;;;5081533;28;20032;-76
2021/03/28 12:01:05;;;;;;;42.70;26.25;;;17.90;92.00;;;;;;5075148;28;20021;-76
2021/03/28 12:03:40;;;;;;;35.22;22.73;;;18.00;91.00;;;;;;5088355;28;20033;-76
2021/03/28 12:06:18;;;;;;;39.92;24.45;;;17.90;90.90;;;;;;5078337;28;20028;-76
2021/03/28 12:08:47;;;;;;;38.10;25.27;;;18.00;90.50;;;;;;5066060;28;20039;-76
2021/03/28 12:11:46;;;;;;;33.03;22.65;;;17.90;90.00;;;;;;5083531;28;20025;-76
2021/03/28 12:14:17;;;;;;;35.08;22.20;;;18.00;90.10;;;;;;5068072;28;20020;-76
2021/03/28 12:17:21;;;;;;;33.67;22.10;;;18.10;88.00;;;;;;5078198;28;20064;-76
2021/03/28 12:20:20;;;;;;;33.83;20.75;;;18.30;88.90;;;;;;5062020;28;20482;-76
2021/03/28 12:22:59;;;;;;;32.83;19.88;;;18.40;86.10;;;;;;5080329;28;20413;-77
2021/03/28 12:25:31;;;;;;;30.25;19.75;;;18.50;86.40;;;;;;5087118;28;20033;-76
2021/03/28 12:27:56;;;;;;;30.10;19.80;;;18.60;84.90;;;;;;5083045;28;20055;-76
2021/03/28 12:30:35;;;;;;;30.70;19.08;;;18.60;86.00;;;;;;5061031;28;20403;-77
2021/03/28 12:33:10;;;;;;;27.45;18.02;;;18.60;85.50;;;;;;5059387;28;20024;-72
2021/03/28 12:36:18;;;;;;;30.27;18.02;;;18.60;84.20;;;;;;5068811;28;20040;-76
2021/03/28 12:38:52;;;;;;;31.02;19.35;;;18.40;84.30;;;;;;5065128;28;20036;-76
2021/03/28 12:41:21;;;;;;;27.00;16.35;;;18.40;85.60;;;;;;5052413;28;20103;-76
2021/03/28 12:44:15;;;;;;;31.67;19.00;;;18.40;83.80;;;;;;5072349;28;20115;-75
2021/03/28 12:46:47;;;;;;;25.88;17.50;;;18.60;84.40;;;;;;5067486;28;20078;-76
2021/03/28 12:49:40;;;;;;;25.50;16.95;;;18.70;83.80;;;;;;5072817;28;20020;-76
2021/03/28 12:52:12;;;;;;;31.45;18.27;;;18.80;82.70;;;;;;5069986;28;20050;-77
2021/03/28 12:55:00;;;;;;;26.27;19.40;;;18.90;81.90;;;;;;5072777;28;20024;-77
2021/03/28 12:57:33;;;;;;;28.30;17.65;;;18.80;81.70;;;;;;5073128;28;20444;-77
2021/03/28 13:00:03;;;;;;;23.17;16.08;;;18.90;82.20;;;;;;5072990;28;20040;-71
2021/03/28 13:02:33;;;;;;;27.08;16.40;;;18.90;81.30;;;;;;5071087;28;20025;-71
2021/03/28 13:05:16;;;;;;;27.23;16.55;;;19.00;80.50;;;;;;5072473;28;20044;-72
2021/03/28 13:07:47;;;;;;;25.88;17.27;;;19.00;80.60;;;;;;5072663;28;20017;-72
2021/03/28 13:10:24;;;;;;;30.00;16.52;;;19.10;80.30;;;;;;5059210;28;20025;-72
2021/03/28 13:12:57;;;;;;;29.98;17.05;;;19.30;80.60;;;;;;5084477;28;20079;-72
2021/03/28 13:15:43;;;;;;;25.70;17.48;;;19.20;77.40;;;;;;5060960;28;20021;-72
2021/03/28 13:18:17;;;;;;;24.50;17.00;;;19.20;77.40;;;;;;5072755;28;20028;-72
2021/03/28 13:20:49;;;;;;;24.45;16.58;;;19.30;76.00;;;;;;5071464;28;20098;-72
2021/03/28 13:23:27;;;;;;;24.67;16.40;;;19.40;77.00;;;;;;5072111;28;20129;-71
2021/03/28 13:26:11;;;;;;;20.88;14.60;;;19.10;76.50;;;;;;5071704;28;20036;-72
2021/03/28 13:28:38;;;;;;;26.40;15.88;;;19.00;77.20;;;;;;5072295;28;20017;-71
2021/03/28 13:31:24;;;;;;;21.88;15.45;;;19.00;77.60;;;;;;5071940;28;20100;-72
2021/03/28 13:33:53;;;;;;;22.30;16.50;;;19.00;76.30;;;;;;5071126;28;20027;-71
2021/03/28 13:36:32;;;;;;;27.33;16.20;;;19.10;77.40;;;;;;5072811;28;20024;-71
2021/03/28 13:39:01;;;;;;;24.60;15.68;;;19.10;76.70;;;;;;5071591;28;20056;-72
2021/03/28 13:41:32;;;;;;;27.63;17.17;;;19.10;76.30;;;;;;5084882;28;20032;-71
2021/03/28 13:44:15;;;;;;;24.15;16.05;;;19.10;76.70;;;;;;5052669;28;20329;-71
2021/03/28 13:46:51;;;;;;;22.52;15.30;;;19.10;76.80;;;;;;5051545;28;20017;-72
2021/03/28 13:49:51;;;;;;;23.08;15.75;;;19.30;77.30;;;;;;5051185;28;20463;-72